Time,TemperatureF,DewpointF,PressureIn,WindDirection,WindDirectionDegrees,WindSpeedMPH,WindSpeedGustMPH,Humidity,HourlyPrecipIn,Conditions,Clouds,dailyrainin,SoftwareType,DateUTC
2013-08-23 00:01:00,70.5,67.8,29.87,NNW,338,3.0,7.0,91,0.00,,,0.00,meteohub,2013-08-23 04:01:00,
2013-08-23 00:02:00,70.5,67.8,29.87,NNW,338,3.0,7.0,91,0.00,,,0.00,meteohub,2013-08-23 04:02:00,
2013-08-23 00:03:00,70.7,68.0,29.86,NNE,23,4.0,7.0,91,0.00,,,0.00,meteohub,2013-08-23 04:03:00,
2013-08-23 00:08:00,70.3,67.6,29.86,North,0,5.0,6.0,91,0.00,,,0.00,meteohub,2013-08-23 04:08:00,
2013-08-23 00:13:00,70.3,67.6,29.86,North,0,5.0,6.0,91,0.00,,,0.00,meteohub,2013-08-23 04:13:00,
2013-08-23 00:18:00,70.0,67.3,29.86,NW,315,3.0,5.0,91,0.00,,,0.00,meteohub,2013-08-23 04:18:00,
2013-08-23 00:23:00,70.0,67.3,29.86,NNW,338,4.0,5.0,91,0.00,,,0.00,meteohub,2013-08-23 04:23:00,
2013-08-23 00:28:00,69.6,66.9,29.86,NNW,338,4.0,5.0,91,0.00,,,0.00,meteohub,2013-08-23 04:28:00,
2013-08-23 00:33:00,69.6,66.9,29.86,NW,315,4.0,5.0,91,0.00,,,0.00,meteohub,2013-08-23 04:33:00,
2013-08-23 00:39:00,69.6,66.9,29.86,NW,315,4.0,5.0,91,0.00,,,0.00,meteohub,2013-08-23 04:39:00,
2013-08-23 00:44:00,69.4,66.7,29.86,NNW,338,2.0,5.0,91,0.00,,,0.00,meteohub,2013-08-23 04:44:00,
2013-08-23 00:49:00,69.4,66.7,29.86,NNW,338,3.0,5.0,91,0.00,,,0.00,meteohub,2013-08-23 04:49:00,
2013-08-23 00:54:00,69.6,66.9,29.86,NNW,338,4.0,5.0,91,0.00,,,0.00,meteohub,2013-08-23 04:54:00,
2013-08-23 01:00:00,69.6,66.9,29.86,NW,315,4.0,4.0,91,0.00,,,0.00,meteohub,2013-08-23 05:00:00,
2013-08-23 01:05:00,69.3,66.6,29.87,NNW,338,5.0,6.0,91,0.00,,,0.00,meteohub,2013-08-23 05:05:00,
2013-08-23 01:10:00,69.3,66.6,29.87,NNW,338,5.0,7.0,91,0.00,,,0.00,meteohub,2013-08-23 05:10:00,
2013-08-23 01:15:00,69.3,66.6,29.87,NNW,338,4.0,7.0,91,0.00,,,0.00,meteohub,2013-08-23 05:15:00,
2013-08-23 01:20:00,69.3,66.6,29.87,NNW,338,7.0,7.0,91,0.00,,,0.00,meteohub,2013-08-23 05:20:00,
2013-08-23 01:25:00,69.4,66.7,29.86,NNW,338,5.0,7.0,91,0.00,,,0.00,meteohub,2013-08-23 05:25:00,
2013-08-23 01:30:00,69.4,66.7,29.86,North,0,3.0,7.0,91,0.00,,,0.00,meteohub,2013-08-23 05:30:00,
2013-08-23 01:35:00,69.8,67.1,29.86,NNW,338,4.0,7.0,91,0.00,,,0.00,meteohub,2013-08-23 05:35:00,
2013-08-23 01:40:00,69.8,67.1,29.86,NNW,338,2.0,5.0,91,0.00,,,0.00,meteohub,2013-08-23 05:40:00,
2013-08-23 01:45:00,70.0,67.5,29.86,NNW,338,4.0,4.0,92,0.00,,,0.00,meteohub,2013-08-23 05:45:00,
2013-08-23 01:51:00,70.0,67.3,29.86,WNW,293,6.0,6.0,91,0.00,,,0.00,meteohub,2013-08-23 05:51:00,
2013-08-23 01:56:00,70.2,67.6,29.86,West,270,4.0,6.0,92,0.00,,,0.00,meteohub,2013-08-23 05:56:00,
2013-08-23 02:01:00,70.2,67.6,29.86,WNW,293,5.0,6.0,92,0.00,,,0.00,meteohub,2013-08-23 06:01:00,
2013-08-23 02:06:00,70.2,67.6,29.85,NW,315,10.0,10.0,92,0.00,,,0.00,meteohub,2013-08-23 06:06:00,
2013-08-23 02:11:00,70.0,67.5,29.85,WNW,293,6.0,10.0,92,0.00,,,0.00,meteohub,2013-08-23 06:11:00,
2013-08-23 02:16:00,70.2,67.6,29.85,NW,315,7.0,10.0,92,0.00,,,0.00,meteohub,2013-08-23 06:16:00,
2013-08-23 02:21:00,70.0,67.5,29.85,NNW,338,5.0,10.0,92,0.00,,,0.00,meteohub,2013-08-23 06:21:00,
2013-08-23 02:26:00,70.0,67.5,29.88,NNE,23,7.0,10.0,92,0.00,,,0.00,meteohub,2013-08-23 06:26:00,
2013-08-23 02:31:00,70.0,67.5,29.88,NW,315,9.0,10.0,92,0.00,,,0.00,meteohub,2013-08-23 06:31:00,
2013-08-23 02:36:00,70.0,67.5,29.88,NW,315,6.0,10.0,92,0.00,,,0.00,meteohub,2013-08-23 06:36:00,
2013-08-23 02:42:00,69.8,67.3,29.88,NW,315,7.0,10.0,92,0.00,,,0.00,meteohub,2013-08-23 06:42:00,
2013-08-23 02:47:00,69.6,67.3,29.86,NW,315,6.0,9.0,92,0.00,,,0.00,meteohub,2013-08-23 06:47:00,
2013-08-23 02:52:00,69.6,67.3,29.86,NNW,338,8.0,8.0,92,0.00,,,0.00,meteohub,2013-08-23 06:52:00,
2013-08-23 02:57:00,69.6,67.3,29.86,NW,315,6.0,8.0,92,0.00,,,0.00,meteohub,2013-08-23 06:57:00,
2013-08-23 03:02:00,69.6,67.3,29.86,NW,315,7.0,8.0,92,0.00,,,0.00,meteohub,2013-08-23 07:02:00,
2013-08-23 03:07:00,69.6,67.3,29.86,NW,315,4.0,8.0,92,0.00,,,0.00,meteohub,2013-08-23 07:07:00,
2013-08-23 03:12:00,69.6,67.3,29.86,NW,315,4.0,7.0,92,0.00,,,0.00,meteohub,2013-08-23 07:12:00,
2013-08-23 03:17:00,69.6,67.3,29.86,NNW,338,4.0,7.0,92,0.00,,,0.00,meteohub,2013-08-23 07:17:00,
2013-08-23 03:22:00,69.4,67.1,29.86,NNW,338,9.0,9.0,92,0.00,,,0.00,meteohub,2013-08-23 07:22:00,
2013-08-23 03:27:00,69.4,67.1,29.85,NW,315,7.0,9.0,92,0.00,,,0.00,meteohub,2013-08-23 07:27:00,
2013-08-23 03:32:00,69.4,67.1,29.85,NNW,338,7.0,9.0,92,0.00,,,0.00,meteohub,2013-08-23 07:32:00,
2013-08-23 03:37:00,69.6,67.3,29.85,NNW,338,5.0,9.0,92,0.00,,,0.00,meteohub,2013-08-23 07:37:00,
2013-08-23 03:42:00,69.6,67.3,29.85,NW,315,6.0,9.0,92,0.00,,,0.00,meteohub,2013-08-23 07:42:00,
2013-08-23 03:47:00,69.4,67.1,29.85,NW,315,8.0,9.0,92,0.00,,,0.00,meteohub,2013-08-23 07:47:00,
2013-08-23 03:52:00,69.6,67.3,29.85,NNW,338,7.0,8.0,92,0.00,,,0.00,meteohub,2013-08-23 07:52:00,
2013-08-23 03:57:00,69.6,67.3,29.85,NNW,338,7.0,8.0,92,0.00,,,0.00,meteohub,2013-08-23 07:57:00,
2013-08-23 04:02:00,69.4,67.1,29.85,NW,315,9.0,9.0,92,0.00,,,0.00,meteohub,2013-08-23 08:02:00,
2013-08-23 04:07:00,69.4,67.1,29.85,NW,315,8.0,9.0,92,0.00,,,0.00,meteohub,2013-08-23 08:07:00,
2013-08-23 04:12:00,69.6,67.3,29.85,NW,315,7.0,9.0,92,0.00,,,0.00,meteohub,2013-08-23 08:12:00,
2013-08-23 04:17:00,69.6,67.3,29.85,NW,315,7.0,9.0,92,0.00,,,0.00,meteohub,2013-08-23 08:17:00,
2013-08-23 04:22:00,69.6,67.3,29.85,North,0,4.0,8.0,92,0.00,,,0.00,meteohub,2013-08-23 08:22:00,
2013-08-23 04:27:00,69.6,67.3,29.85,NW,315,8.0,8.0,92,0.00,,,0.00,meteohub,2013-08-23 08:27:00,
2013-08-23 04:32:00,69.6,67.3,29.85,NW,315,6.0,9.0,92,0.00,,,0.00,meteohub,2013-08-23 08:32:00,
2013-08-23 04:37:00,69.8,67.3,29.85,NW,315,9.0,9.0,92,0.00,,,0.00,meteohub,2013-08-23 08:37:00,
2013-08-23 04:42:00,69.8,67.3,29.85,North,0,9.0,9.0,92,0.00,,,0.00,meteohub,2013-08-23 08:42:00,
2013-08-23 04:47:00,69.8,67.3,29.86,NNW,338,8.0,9.0,92,0.00,,,0.00,meteohub,2013-08-23 08:47:00,
2013-08-23 04:52:00,69.8,67.3,29.86,NW,315,8.0,9.0,92,0.00,,,0.00,meteohub,2013-08-23 08:52:00,
2013-08-23 04:57:00,69.6,67.3,29.86,NW,315,7.0,9.0,92,0.00,,,0.00,meteohub,2013-08-23 08:57:00,
2013-08-23 05:02:00,69.6,67.3,29.86,NNW,338,7.0,8.0,92,0.00,,,0.00,meteohub,2013-08-23 09:02:00,
2013-08-23 05:07:00,69.8,67.3,29.87,NNE,23,7.0,8.0,92,0.00,,,0.00,meteohub,2013-08-23 09:07:00,
2013-08-23 05:12:00,69.8,67.3,29.87,North,0,7.0,8.0,92,0.00,,,0.00,meteohub,2013-08-23 09:12:00,
2013-08-23 05:17:00,70.0,67.5,29.87,NNW,338,9.0,9.0,92,0.00,,,0.00,meteohub,2013-08-23 09:17:00,
2013-08-23 05:22:00,70.0,67.5,29.87,SW,225,7.0,10.0,92,0.00,,,0.00,meteohub,2013-08-23 09:22:00,
2013-08-23 05:27:00,70.0,67.5,29.86,NNE,23,6.0,10.0,92,0.00,,,0.00,meteohub,2013-08-23 09:27:00,
2013-08-23 05:32:00,70.0,67.5,29.86,NNE,23,8.0,9.0,92,0.00,,,0.00,meteohub,2013-08-23 09:32:00,
2013-08-23 05:37:00,69.8,67.3,29.86,NNE,23,8.0,8.0,92,0.00,,,0.00,meteohub,2013-08-23 09:37:00,
2013-08-23 05:42:00,70.0,67.5,29.86,NNW,338,7.0,8.0,92,0.00,,,0.00,meteohub,2013-08-23 09:42:00,
2013-08-23 05:47:00,70.0,67.5,29.86,NNW,338,6.0,8.0,92,0.00,,,0.00,meteohub,2013-08-23 09:47:00,
2013-08-23 05:52:00,70.0,67.5,29.86,NNE,23,7.0,8.0,92,0.00,,,0.00,meteohub,2013-08-23 09:52:00,
2013-08-23 05:57:00,69.8,67.3,29.86,NNW,338,6.0,7.0,92,0.00,,,0.00,meteohub,2013-08-23 09:57:00,
2013-08-23 06:02:00,70.0,67.5,29.86,ENE,68,4.0,7.0,92,0.00,,,0.00,meteohub,2013-08-23 10:02:00,
2013-08-23 06:07:00,70.0,67.5,29.87,NNW,338,2.0,7.0,92,0.00,,,0.00,meteohub,2013-08-23 10:07:00,
2013-08-23 06:12:00,70.0,67.5,29.87,NNW,338,2.0,6.0,92,0.00,,,0.00,meteohub,2013-08-23 10:12:00,
2013-08-23 06:17:00,70.0,67.5,29.87,North,0,3.0,4.0,92,0.00,,,0.00,meteohub,2013-08-23 10:17:00,
2013-08-23 06:22:00,70.0,67.5,29.87,NNE,23,3.0,3.0,92,0.00,,,0.00,meteohub,2013-08-23 10:22:00,
2013-08-23 06:27:00,70.0,67.3,29.88,NNW,338,4.0,4.0,91,0.00,,,0.00,meteohub,2013-08-23 10:27:00,
2013-08-23 06:32:00,69.8,67.1,29.88,NNE,23,2.0,6.0,91,0.00,,,0.00,meteohub,2013-08-23 10:32:00,
2013-08-23 06:37:00,69.6,66.9,29.88,NNE,23,4.0,6.0,91,0.00,,,0.00,meteohub,2013-08-23 10:37:00,
2013-08-23 06:43:00,69.6,66.9,29.89,NNE,23,4.0,5.0,91,0.00,,,0.00,meteohub,2013-08-23 10:43:00,
2013-08-23 06:48:00,69.4,66.7,29.89,ESE,113,2.0,6.0,91,0.00,,,0.00,meteohub,2013-08-23 10:48:00,
2013-08-23 06:53:00,69.4,66.7,29.89,ENE,68,4.0,6.0,91,0.00,,,0.00,meteohub,2013-08-23 10:53:00,
2013-08-23 06:58:00,69.3,66.6,29.89,North,0,6.0,6.0,91,0.00,,,0.00,meteohub,2013-08-23 10:58:00,
2013-08-23 07:03:00,69.3,66.6,29.90,WNW,293,3.0,6.0,91,0.00,,,0.00,meteohub,2013-08-23 11:03:00,
2013-08-23 07:08:00,69.1,66.0,29.90,WNW,293,4.0,6.0,90,0.00,,,0.00,meteohub,2013-08-23 11:08:00,
2013-08-23 07:13:00,69.1,66.0,29.90,NNE,23,2.0,6.0,90,0.00,,,0.00,meteohub,2013-08-23 11:13:00,
2013-08-23 07:18:00,69.3,66.2,29.90,NE,45,4.0,6.0,90,0.00,,,0.00,meteohub,2013-08-23 11:18:00,
2013-08-23 07:24:00,69.3,66.2,29.90,NNE,23,4.0,6.0,90,0.00,,,0.00,meteohub,2013-08-23 11:24:00,
2013-08-23 07:29:00,69.4,66.4,29.90,ESE,113,4.0,6.0,90,0.00,,,0.00,meteohub,2013-08-23 11:29:00,
2013-08-23 07:34:00,69.3,66.2,29.90,ESE,113,5.0,8.0,90,0.00,,,0.00,meteohub,2013-08-23 11:34:00,
2013-08-23 07:39:00,69.6,66.6,29.90,ESE,113,4.0,8.0,90,0.00,,,0.00,meteohub,2013-08-23 11:39:00,
2013-08-23 07:44:00,69.6,66.6,29.92,NNW,338,2.0,8.0,90,0.00,,,0.00,meteohub,2013-08-23 11:44:00,
2013-08-23 07:49:00,69.6,66.6,29.92,WNW,293,2.0,6.0,90,0.00,,,0.00,meteohub,2013-08-23 11:49:00,
2013-08-23 07:54:00,70.3,67.3,29.92,NNE,23,3.0,6.0,90,0.00,,,0.00,meteohub,2013-08-23 11:54:00,
2013-08-23 07:59:00,70.3,66.9,29.92,East,90,6.0,6.0,89,0.00,,,0.00,meteohub,2013-08-23 11:59:00,
2013-08-23 08:04:00,70.7,67.3,29.93,NNE,23,2.0,5.0,89,0.00,,,0.00,meteohub,2013-08-23 12:04:00,
2013-08-23 08:09:00,71.2,67.8,29.93,NNE,23,3.0,6.0,89,0.00,,,0.00,meteohub,2013-08-23 12:09:00,
2013-08-23 08:14:00,71.4,67.6,29.93,NNW,338,3.0,6.0,88,0.00,,,0.00,meteohub,2013-08-23 12:14:00,
2013-08-23 08:20:00,71.8,68.0,29.93,NE,45,2.0,6.0,88,0.00,,,0.00,meteohub,2013-08-23 12:20:00,
2013-08-23 08:25:00,72.0,68.2,29.93,ESE,113,0.0,3.0,88,0.00,,,0.00,meteohub,2013-08-23 12:25:00,
2013-08-23 08:30:00,72.1,68.0,29.93,ESE,113,3.0,3.0,87,0.00,,,0.00,meteohub,2013-08-23 12:30:00,
2013-08-23 08:35:00,72.3,67.8,29.93,NE,45,2.0,3.0,86,0.00,,,0.00,meteohub,2013-08-23 12:35:00,
2013-08-23 08:40:00,72.5,68.0,29.93,WSW,248,3.0,3.0,86,0.00,,,0.00,meteohub,2013-08-23 12:40:00,
2013-08-23 08:45:00,72.7,67.8,29.93,SW,225,2.0,3.0,85,0.00,,,0.00,meteohub,2013-08-23 12:45:00,
2013-08-23 08:50:00,73.0,68.2,29.93,South,180,0.0,3.0,85,0.00,,,0.00,meteohub,2013-08-23 12:50:00,
2013-08-23 08:55:00,73.2,68.2,29.93,NW,315,2.0,2.0,84,0.00,,,0.00,meteohub,2013-08-23 12:55:00,
2013-08-23 09:00:00,73.2,67.8,29.93,NW,315,2.0,4.0,83,0.00,,,0.00,meteohub,2013-08-23 13:00:00,
2013-08-23 09:05:00,73.2,67.5,29.94,NE,45,6.0,6.0,82,0.00,,,0.00,meteohub,2013-08-23 13:05:00,
2013-08-23 09:10:00,73.4,67.6,29.94,SW,225,2.0,6.0,82,0.00,,,0.00,meteohub,2013-08-23 13:10:00,
2013-08-23 09:15:00,73.8,68.0,29.94,SE,135,0.0,6.0,82,0.00,,,0.00,meteohub,2013-08-23 13:15:00,
2013-08-23 09:21:00,73.8,68.0,29.94,NE,45,2.0,6.0,82,0.00,,,0.00,meteohub,2013-08-23 13:21:00,
2013-08-23 09:26:00,73.8,67.6,29.94,NNW,338,2.0,2.0,81,0.00,,,0.00,meteohub,2013-08-23 13:26:00,
2013-08-23 09:31:00,73.8,67.6,29.94,ESE,113,2.0,2.0,81,0.00,,,0.00,meteohub,2013-08-23 13:31:00,
2013-08-23 09:36:00,73.8,67.6,29.94,WSW,248,0.0,2.0,81,0.00,,,0.00,meteohub,2013-08-23 13:36:00,
2013-08-23 09:41:00,73.9,67.5,29.94,NNE,23,4.0,4.0,80,0.00,,,0.00,meteohub,2013-08-23 13:41:00,
2013-08-23 09:46:00,74.3,67.6,29.94,ENE,68,5.0,5.0,80,0.00,,,0.00,meteohub,2013-08-23 13:46:00,
2013-08-23 09:51:00,74.5,67.5,29.94,NNE,23,3.0,5.0,79,0.00,,,0.00,meteohub,2013-08-23 13:51:00,
2013-08-23 09:56:00,74.5,67.5,29.94,NNE,23,8.0,8.0,79,0.00,,,0.00,meteohub,2013-08-23 13:56:00,
2013-08-23 10:01:00,74.7,67.3,29.94,SE,135,4.0,8.0,78,0.00,,,0.00,meteohub,2013-08-23 14:01:00,
2013-08-23 10:06:00,74.7,66.9,29.95,NE,45,9.0,9.0,77,0.00,,,0.00,meteohub,2013-08-23 14:06:00,
2013-08-23 10:11:00,74.7,67.3,29.95,NE,45,1.0,9.0,78,0.00,,,0.00,meteohub,2013-08-23 14:11:00,
2013-08-23 10:16:00,75.0,68.0,29.95,WSW,248,2.0,9.0,79,0.00,,,0.00,meteohub,2013-08-23 14:16:00,
2013-08-23 10:22:00,75.2,67.8,29.95,NNW,338,4.0,9.0,78,0.00,,,0.00,meteohub,2013-08-23 14:22:00,
2013-08-23 10:27:00,74.8,66.7,29.94,NW,315,4.0,4.0,76,0.00,,,0.00,meteohub,2013-08-23 14:27:00,
2013-08-23 10:32:00,74.7,66.9,29.94,NNE,23,3.0,6.0,77,0.00,,,0.00,meteohub,2013-08-23 14:32:00,
2013-08-23 10:37:00,74.5,66.7,29.94,NW,315,3.0,6.0,77,0.00,,,0.00,meteohub,2013-08-23 14:37:00,
2013-08-23 10:42:00,74.7,66.6,29.94,NNW,338,4.0,6.0,76,0.00,,,0.00,meteohub,2013-08-23 14:42:00,
2013-08-23 10:47:00,74.3,66.2,29.94,NNW,338,5.0,6.0,76,0.00,,,0.00,meteohub,2013-08-23 14:47:00,
2013-08-23 10:52:00,74.5,66.7,29.94,East,90,5.0,5.0,77,0.00,,,0.00,meteohub,2013-08-23 14:52:00,
2013-08-23 10:57:00,74.1,66.0,29.94,NW,315,3.0,8.0,76,0.00,,,0.00,meteohub,2013-08-23 14:57:00,
2013-08-23 11:02:00,74.3,66.6,29.94,NNE,23,3.0,8.0,77,0.00,,,0.00,meteohub,2013-08-23 15:02:00,
2013-08-23 11:07:00,74.3,66.2,29.94,NNW,338,4.0,8.0,76,0.00,,,0.00,meteohub,2013-08-23 15:07:00,
2013-08-23 11:12:00,74.3,66.2,29.94,ENE,68,1.0,7.0,76,0.00,,,0.00,meteohub,2013-08-23 15:12:00,
2013-08-23 11:17:00,74.5,66.0,29.94,WSW,248,3.0,6.0,75,0.00,,,0.00,meteohub,2013-08-23 15:17:00,
2013-08-23 11:22:00,74.7,66.2,29.94,SE,135,1.0,6.0,75,0.00,,,0.00,meteohub,2013-08-23 15:22:00,
2013-08-23 11:27:00,74.7,65.8,29.94,NE,45,6.0,6.0,74,0.00,,,0.00,meteohub,2013-08-23 15:27:00,
2013-08-23 11:34:00,75.0,66.6,29.94,South,180,2.0,6.0,75,0.00,,,0.00,meteohub,2013-08-23 15:34:00,
2013-08-23 11:39:00,75.2,66.4,29.94,North,0,2.0,6.0,74,0.00,,,0.00,meteohub,2013-08-23 15:39:00,
2013-08-23 11:44:00,75.7,66.4,29.94,South,180,3.0,6.0,73,0.00,,,0.00,meteohub,2013-08-23 15:44:00,
2013-08-23 11:50:00,75.7,66.4,29.94,West,270,4.0,6.0,73,0.00,,,0.00,meteohub,2013-08-23 15:50:00,
2013-08-23 11:55:00,76.3,66.9,29.94,NE,45,7.0,7.0,73,0.00,,,0.00,meteohub,2013-08-23 15:55:00,
2013-08-23 12:00:00,76.6,66.6,29.94,NE,45,7.0,8.0,71,0.00,,,0.00,meteohub,2013-08-23 16:00:00,
2013-08-23 12:05:00,77.0,65.7,29.94,East,90,6.0,11.0,68,0.00,,,0.00,meteohub,2013-08-23 16:05:00,
2013-08-23 12:10:00,77.0,65.7,29.94,East,90,6.0,11.0,68,0.00,,,0.00,meteohub,2013-08-23 16:10:00,
2013-08-23 12:16:00,77.2,65.8,29.94,East,90,6.0,11.0,68,0.00,,,0.00,meteohub,2013-08-23 16:16:00,
2013-08-23 12:22:00,77.2,65.3,29.94,ENE,68,5.0,6.0,67,0.00,,,0.00,meteohub,2013-08-23 16:22:00,
2013-08-23 12:27:00,77.4,65.1,29.94,ESE,113,7.0,7.0,66,0.00,,,0.00,meteohub,2013-08-23 16:27:00,
2013-08-23 12:32:00,77.5,64.8,29.94,South,180,4.0,7.0,65,0.00,,,0.00,meteohub,2013-08-23 16:32:00,
2013-08-23 12:37:00,77.9,65.1,29.94,ENE,68,9.0,9.0,65,0.00,,,0.00,meteohub,2013-08-23 16:37:00,
2013-08-23 12:42:00,77.7,64.9,29.94,East,90,11.0,11.0,65,0.00,,,0.00,meteohub,2013-08-23 16:42:00,
2013-08-23 12:47:00,77.7,64.9,29.94,ESE,113,11.0,11.0,65,0.00,,,0.00,meteohub,2013-08-23 16:47:00,
2013-08-23 12:52:00,77.9,65.1,29.94,NE,45,6.0,11.0,65,0.00,,,0.00,meteohub,2013-08-23 16:52:00,
2013-08-23 12:58:00,78.3,65.5,29.94,ENE,68,6.0,11.0,65,0.00,,,0.00,meteohub,2013-08-23 16:58:00,
2013-08-23 13:03:00,79.0,65.3,29.95,SE,135,6.0,11.0,63,0.00,,,0.00,meteohub,2013-08-23 17:03:00,
2013-08-23 13:09:00,79.3,65.7,29.95,ESE,113,2.0,7.0,63,0.00,,,0.00,meteohub,2013-08-23 17:09:00,
2013-08-23 13:14:00,79.3,65.1,29.95,ENE,68,3.0,7.0,62,0.00,,,0.00,meteohub,2013-08-23 17:14:00,
2013-08-23 13:20:00,79.0,64.8,29.95,ENE,68,5.0,6.0,62,0.00,,,0.00,meteohub,2013-08-23 17:20:00,
2013-08-23 13:25:00,79.7,66.0,29.96,ENE,68,3.0,5.0,63,0.00,,,0.00,meteohub,2013-08-23 17:25:00,
2013-08-23 13:30:00,81.5,65.8,29.96,NE,45,6.0,6.0,59,0.00,,,0.00,meteohub,2013-08-23 17:30:00,
2013-08-23 13:36:00,82.6,68.2,29.96,NE,45,1.0,6.0,62,0.00,,,0.00,meteohub,2013-08-23 17:36:00,
2013-08-23 13:41:00,83.1,67.3,29.96,ENE,68,5.0,6.0,59,0.00,,,0.00,meteohub,2013-08-23 17:41:00,
2013-08-23 13:46:00,83.3,66.6,29.96,NNW,338,6.0,6.0,57,0.00,,,0.00,meteohub,2013-08-23 17:46:00,
2013-08-23 13:51:00,82.2,66.4,29.96,NE,45,4.0,6.0,59,0.00,,,0.00,meteohub,2013-08-23 17:51:00,
2013-08-23 13:57:00,82.2,65.5,29.96,ENE,68,6.0,6.0,57,0.00,,,0.00,meteohub,2013-08-23 17:57:00,
2013-08-23 14:02:00,82.2,65.5,29.96,NE,45,4.0,6.0,57,0.00,,,0.00,meteohub,2013-08-23 18:02:00,
2013-08-23 14:07:00,82.2,65.5,29.96,NNE,23,2.0,6.0,57,0.00,,,0.00,meteohub,2013-08-23 18:07:00,
2013-08-23 14:12:00,81.9,66.2,29.96,NNE,23,2.0,6.0,59,0.00,,,0.00,meteohub,2013-08-23 18:12:00,
2013-08-23 14:17:00,82.4,66.6,29.96,NNW,338,2.0,6.0,59,0.00,,,0.00,meteohub,2013-08-23 18:17:00,
2013-08-23 14:23:00,82.2,66.9,29.98,ENE,68,6.0,6.0,60,0.00,,,0.00,meteohub,2013-08-23 18:23:00,
2013-08-23 14:28:00,82.2,65.5,29.98,ENE,68,5.0,5.0,57,0.00,,,0.00,meteohub,2013-08-23 18:28:00,
2013-08-23 14:33:00,82.2,64.4,29.98,ENE,68,6.0,6.0,55,0.00,,,0.00,meteohub,2013-08-23 18:33:00,
2013-08-23 14:38:00,82.4,65.1,29.98,ENE,68,4.0,6.0,56,0.00,,,0.00,meteohub,2013-08-23 18:38:00,
2013-08-23 14:43:00,82.2,65.5,29.97,WSW,248,2.0,6.0,57,0.00,,,0.00,meteohub,2013-08-23 18:43:00,
2013-08-23 14:48:00,81.9,65.7,29.97,SW,225,13.0,13.0,58,0.00,,,0.00,meteohub,2013-08-23 18:48:00,
2013-08-23 14:53:00,82.2,66.4,29.97,SSW,203,9.0,13.0,59,0.00,,,0.00,meteohub,2013-08-23 18:53:00,
2013-08-23 14:59:00,82.0,66.4,29.97,SW,225,7.0,13.0,59,0.00,,,0.00,meteohub,2013-08-23 18:59:00,
2013-08-23 15:04:00,81.9,66.2,29.98,South,180,12.0,13.0,59,0.00,,,0.00,meteohub,2013-08-23 19:04:00,
2013-08-23 15:09:00,81.5,66.2,29.98,SW,225,10.0,13.0,60,0.00,,,0.00,meteohub,2013-08-23 19:09:00,
2013-08-23 15:14:00,81.3,66.0,29.98,SSW,203,10.0,12.0,60,0.00,,,0.00,meteohub,2013-08-23 19:14:00,
2013-08-23 15:20:00,81.5,66.2,29.98,SSW,203,9.0,11.0,60,0.00,,,0.00,meteohub,2013-08-23 19:20:00,
2013-08-23 15:25:00,81.5,66.2,29.98,South,180,9.0,10.0,60,0.00,,,0.00,meteohub,2013-08-23 19:25:00,
2013-08-23 15:30:00,81.5,66.2,29.98,SW,225,9.0,11.0,60,0.00,,,0.00,meteohub,2013-08-23 19:30:00,
2013-08-23 15:35:00,81.7,66.4,29.98,SSW,203,10.0,11.0,60,0.00,,,0.00,meteohub,2013-08-23 19:35:00,
2013-08-23 15:42:00,81.9,67.1,29.98,SW,225,10.0,11.0,61,0.00,,,0.00,meteohub,2013-08-23 19:42:00,
2013-08-23 15:47:00,82.4,67.6,29.98,SW,225,9.0,10.0,61,0.00,,,0.00,meteohub,2013-08-23 19:47:00,
2013-08-23 15:52:00,82.6,66.7,29.98,SW,225,8.0,10.0,59,0.00,,,0.00,meteohub,2013-08-23 19:52:00,
2013-08-23 15:57:00,82.2,66.9,29.98,SW,225,11.0,11.0,60,0.00,,,0.00,meteohub,2013-08-23 19:57:00,
2013-08-23 16:05:00,81.5,66.2,29.98,South,180,9.0,13.0,60,0.00,,,0.00,meteohub,2013-08-23 20:05:00,
2013-08-23 16:11:00,81.0,65.8,29.98,SW,225,8.0,13.0,60,0.00,,,0.00,meteohub,2013-08-23 20:11:00,
2013-08-23 16:16:00,80.8,66.0,29.98,SW,225,8.0,10.0,61,0.00,,,0.00,meteohub,2013-08-23 20:16:00,
2013-08-23 16:22:00,80.4,66.2,29.98,SSW,203,9.0,10.0,62,0.00,,,0.00,meteohub,2013-08-23 20:22:00,
2013-08-23 16:27:00,80.2,66.0,29.98,SW,225,11.0,11.0,62,0.00,,,0.00,meteohub,2013-08-23 20:27:00,
2013-08-23 16:32:00,79.9,66.6,29.98,South,180,12.0,13.0,64,0.00,,,0.00,meteohub,2013-08-23 20:32:00,
2013-08-23 16:37:00,79.5,66.2,29.98,South,180,11.0,13.0,64,0.00,,,0.00,meteohub,2013-08-23 20:37:00,
2013-08-23 16:43:00,79.3,66.6,29.98,South,180,11.0,13.0,65,0.00,,,0.00,meteohub,2013-08-23 20:43:00,
2013-08-23 16:48:00,79.0,66.6,29.98,SSW,203,12.0,13.0,66,0.00,,,0.00,meteohub,2013-08-23 20:48:00,
2013-08-23 16:54:00,78.4,66.6,29.98,SSW,203,12.0,13.0,67,0.00,,,0.00,meteohub,2013-08-23 20:54:00,
2013-08-23 16:59:00,78.1,65.8,29.98,South,180,14.0,14.0,66,0.00,,,0.00,meteohub,2013-08-23 20:59:00,
2013-08-23 17:04:00,78.3,66.0,29.99,SSW,203,12.0,15.0,66,0.00,,,0.00,meteohub,2013-08-23 21:04:00,
2013-08-23 17:10:00,78.1,65.8,29.99,South,180,15.0,15.0,66,0.00,,,0.00,meteohub,2013-08-23 21:10:00,
2013-08-23 17:15:00,77.9,65.7,29.99,South,180,13.0,15.0,66,0.00,,,0.00,meteohub,2013-08-23 21:15:00,
2013-08-23 17:21:00,78.1,65.8,29.99,South,180,13.0,15.0,66,0.00,,,0.00,meteohub,2013-08-23 21:21:00,
2013-08-23 17:26:00,77.9,66.0,29.99,South,180,15.0,15.0,67,0.00,,,0.00,meteohub,2013-08-23 21:26:00,
2013-08-23 17:31:00,77.7,65.5,29.99,SSW,203,11.0,15.0,66,0.00,,,0.00,meteohub,2013-08-23 21:31:00,
2013-08-23 17:36:00,77.9,65.7,29.99,South,180,10.0,15.0,66,0.00,,,0.00,meteohub,2013-08-23 21:36:00,
2013-08-23 17:41:00,78.6,65.8,29.99,South,180,8.0,15.0,65,0.00,,,0.00,meteohub,2013-08-23 21:41:00,
2013-08-23 17:46:00,79.3,66.9,29.99,South,180,10.0,13.0,66,0.00,,,0.00,meteohub,2013-08-23 21:46:00,
2013-08-23 17:51:00,79.3,66.6,29.99,South,180,8.0,13.0,65,0.00,,,0.00,meteohub,2013-08-23 21:51:00,
2013-08-23 17:56:00,78.6,65.8,29.99,South,180,10.0,12.0,65,0.00,,,0.00,meteohub,2013-08-23 21:56:00,
2013-08-23 18:01:00,77.7,64.6,29.99,South,180,6.0,10.0,64,0.00,,,0.00,meteohub,2013-08-23 22:01:00,
2013-08-23 18:07:00,77.2,64.6,29.99,South,180,6.0,10.0,65,0.00,,,0.00,meteohub,2013-08-23 22:07:00,
2013-08-23 18:12:00,77.5,65.3,29.99,South,180,8.0,10.0,66,0.00,,,0.00,meteohub,2013-08-23 22:12:00,
2013-08-23 18:17:00,77.7,65.5,29.99,South,180,10.0,10.0,66,0.00,,,0.00,meteohub,2013-08-23 22:17:00,
2013-08-23 18:22:00,77.4,65.1,29.99,South,180,7.0,10.0,66,0.00,,,0.00,meteohub,2013-08-23 22:22:00,
2013-08-23 18:27:00,76.6,64.4,30.00,South,180,7.0,10.0,66,0.00,,,0.00,meteohub,2013-08-23 22:27:00,
2013-08-23 18:32:00,75.9,64.2,30.00,South,180,8.0,10.0,67,0.00,,,0.00,meteohub,2013-08-23 22:32:00,
2013-08-23 18:37:00,75.4,64.0,30.00,SSW,203,8.0,9.0,68,0.00,,,0.00,meteohub,2013-08-23 22:37:00,
2013-08-23 18:42:00,75.0,63.7,30.00,South,180,6.0,9.0,68,0.00,,,0.00,meteohub,2013-08-23 22:42:00,
2013-08-23 18:47:00,74.7,63.9,30.01,South,180,4.0,8.0,69,0.00,,,0.00,meteohub,2013-08-23 22:47:00,
2013-08-23 18:52:00,74.5,64.0,30.01,South,180,6.0,8.0,70,0.00,,,0.00,meteohub,2013-08-23 22:52:00,
2013-08-23 18:57:00,74.1,64.0,30.01,South,180,6.0,8.0,71,0.00,,,0.00,meteohub,2013-08-23 22:57:00,
2013-08-23 19:02:00,73.6,63.7,30.01,South,180,7.0,7.0,71,0.00,,,0.00,meteohub,2013-08-23 23:02:00,
2013-08-23 19:07:00,73.2,63.3,30.01,South,180,6.0,9.0,71,0.00,,,0.00,meteohub,2013-08-23 23:07:00,
2013-08-23 19:12:00,73.2,63.7,30.01,South,180,6.0,9.0,72,0.00,,,0.00,meteohub,2013-08-23 23:12:00,
2013-08-23 19:18:00,72.9,63.7,30.01,South,180,5.0,9.0,73,0.00,,,0.00,meteohub,2013-08-23 23:18:00,
2013-08-23 19:23:00,72.9,63.7,30.01,South,180,4.0,7.0,73,0.00,,,0.00,meteohub,2013-08-23 23:23:00,
2013-08-23 19:28:00,72.5,63.3,30.01,South,180,5.0,6.0,73,0.00,,,0.00,meteohub,2013-08-23 23:28:00,
2013-08-23 19:33:00,72.3,63.5,30.01,South,180,4.0,6.0,74,0.00,,,0.00,meteohub,2013-08-23 23:33:00,
2013-08-23 19:38:00,72.0,63.1,30.01,South,180,5.0,5.0,74,0.00,,,0.00,meteohub,2013-08-23 23:38:00,
2013-08-23 19:43:00,71.8,63.9,30.02,South,180,4.0,5.0,76,0.00,,,0.00,meteohub,2013-08-23 23:43:00,
2013-08-23 19:48:00,71.6,63.7,30.02,South,180,6.0,6.0,76,0.00,,,0.00,meteohub,2013-08-23 23:48:00,
2013-08-23 19:53:00,71.4,63.5,30.02,South,180,4.0,6.0,76,0.00,,,0.00,meteohub,2013-08-23 23:53:00,
2013-08-23 19:58:00,71.4,63.5,30.02,South,180,5.0,6.0,76,0.00,,,0.00,meteohub,2013-08-23 23:58:00,
2013-08-23 20:03:00,71.1,63.5,30.03,South,180,5.0,6.0,77,0.00,,,0.00,meteohub,2013-08-24 00:03:00,
2013-08-23 20:08:00,70.9,63.3,30.03,South,180,5.0,5.0,77,0.00,,,0.00,meteohub,2013-08-24 00:08:00,
2013-08-23 20:14:00,70.7,63.5,30.03,South,180,2.0,5.0,78,0.00,,,0.00,meteohub,2013-08-24 00:14:00,
2013-08-23 20:19:00,70.7,63.5,30.03,SE,135,2.0,5.0,78,0.00,,,0.00,meteohub,2013-08-24 00:19:00,
2013-08-23 20:24:00,70.3,63.1,30.04,SE,135,1.0,5.0,78,0.00,,,0.00,meteohub,2013-08-24 00:24:00,
2013-08-23 20:29:00,70.0,63.1,30.04,SE,135,0.0,4.0,79,0.00,,,0.00,meteohub,2013-08-24 00:29:00,
2013-08-23 20:34:00,69.8,63.3,30.04,SE,135,0.0,2.0,80,0.00,,,0.00,meteohub,2013-08-24 00:34:00,
2013-08-23 20:39:00,69.4,63.0,30.04,ESE,113,2.0,2.0,80,0.00,,,0.00,meteohub,2013-08-24 00:39:00,
2013-08-23 20:44:00,69.4,63.0,30.04,ENE,68,2.0,2.0,80,0.00,,,0.00,meteohub,2013-08-24 00:44:00,
2013-08-23 20:50:00,69.3,62.8,30.04,NE,45,0.0,2.0,80,0.00,,,0.00,meteohub,2013-08-24 00:50:00,
2013-08-23 20:55:00,69.3,62.8,30.04,NE,45,0.0,3.0,80,0.00,,,0.00,meteohub,2013-08-24 00:55:00,
2013-08-23 21:00:00,69.3,63.1,30.04,ENE,68,2.0,2.0,81,0.00,,,0.00,meteohub,2013-08-24 01:00:00,
2013-08-23 21:05:00,69.1,63.0,30.06,NE,45,2.0,2.0,81,0.00,,,0.00,meteohub,2013-08-24 01:05:00,
2013-08-23 21:10:00,68.9,62.8,30.06,NE,45,2.0,2.0,81,0.00,,,0.00,meteohub,2013-08-24 01:10:00,
2013-08-23 21:15:00,68.9,63.1,30.06,NE,45,0.0,2.0,82,0.00,,,0.00,meteohub,2013-08-24 01:15:00,
2013-08-23 21:21:00,68.5,62.8,30.06,ENE,68,1.0,2.0,82,0.00,,,0.00,meteohub,2013-08-24 01:21:00,
2013-08-23 21:26:00,68.5,62.8,30.06,ENE,68,0.0,2.0,82,0.00,,,0.00,meteohub,2013-08-24 01:26:00,
2013-08-23 21:31:00,68.0,62.2,30.06,ENE,68,2.0,2.0,82,0.00,,,0.00,meteohub,2013-08-24 01:31:00,
2013-08-23 21:37:00,68.0,62.2,30.06,ENE,68,3.0,3.0,82,0.00,,,0.00,meteohub,2013-08-24 01:37:00,
2013-08-23 21:42:00,68.0,62.2,30.06,NE,45,2.0,3.0,82,0.00,,,0.00,meteohub,2013-08-24 01:42:00,
2013-08-23 21:47:00,68.0,62.2,30.06,NE,45,0.0,3.0,82,0.00,,,0.00,meteohub,2013-08-24 01:47:00,
2013-08-23 21:52:00,67.6,62.2,30.06,NE,45,0.0,3.0,83,0.00,,,0.00,meteohub,2013-08-24 01:52:00,
2013-08-23 21:57:00,67.5,62.1,30.06,ENE,68,2.0,2.0,83,0.00,,,0.00,meteohub,2013-08-24 01:57:00,
2013-08-23 22:02:00,67.5,62.1,30.06,NE,45,3.0,3.0,83,0.00,,,0.00,meteohub,2013-08-24 02:02:00,
2013-08-23 22:07:00,67.3,61.9,30.07,NNE,23,3.0,3.0,83,0.00,,,0.00,meteohub,2013-08-24 02:07:00,
2013-08-23 22:12:00,67.3,61.9,30.07,NNE,23,3.0,4.0,83,0.00,,,0.00,meteohub,2013-08-24 02:12:00,
2013-08-23 22:17:00,67.5,62.1,30.07,NE,45,2.0,4.0,83,0.00,,,0.00,meteohub,2013-08-24 02:17:00,
2013-08-23 22:22:00,67.5,62.4,30.07,NE,45,3.0,4.0,84,0.00,,,0.00,meteohub,2013-08-24 02:22:00,
2013-08-23 22:27:00,67.3,62.2,30.08,NE,45,2.0,4.0,84,0.00,,,0.00,meteohub,2013-08-24 02:27:00,
2013-08-23 22:32:00,67.3,62.2,30.08,NE,45,2.0,3.0,84,0.00,,,0.00,meteohub,2013-08-24 02:32:00,
2013-08-23 22:37:00,67.1,62.4,30.08,NE,45,2.0,3.0,85,0.00,,,0.00,meteohub,2013-08-24 02:37:00,
2013-08-23 22:42:00,66.9,62.2,30.08,NE,45,2.0,2.0,85,0.00,,,0.00,meteohub,2013-08-24 02:42:00,
2013-08-23 22:47:00,67.1,62.4,30.08,NE,45,1.0,2.0,85,0.00,,,0.00,meteohub,2013-08-24 02:47:00,
2013-08-23 22:52:00,66.7,62.1,30.08,NE,45,2.0,2.0,85,0.00,,,0.00,meteohub,2013-08-24 02:52:00,
2013-08-23 22:57:00,66.6,61.9,30.08,NNW,338,3.0,3.0,85,0.00,,,0.00,meteohub,2013-08-24 02:57:00,
2013-08-23 23:02:00,66.4,61.7,30.08,NNE,23,0.0,3.0,85,0.00,,,0.00,meteohub,2013-08-24 03:02:00,
2013-08-23 23:07:00,66.4,62.1,30.09,ENE,68,3.0,3.0,86,0.00,,,0.00,meteohub,2013-08-24 03:07:00,
2013-08-23 23:12:00,66.2,61.9,30.09,NE,45,2.0,3.0,86,0.00,,,0.00,meteohub,2013-08-24 03:12:00,
2013-08-23 23:17:00,66.4,62.1,30.09,NE,45,2.0,3.0,86,0.00,,,0.00,meteohub,2013-08-24 03:17:00,
2013-08-23 23:22:00,66.2,61.9,30.09,North,0,2.0,3.0,86,0.00,,,0.00,meteohub,2013-08-24 03:22:00,
2013-08-23 23:27:00,66.2,61.9,30.09,North,0,4.0,4.0,86,0.00,,,0.00,meteohub,2013-08-24 03:27:00,
2013-08-23 23:32:00,66.0,61.7,30.09,NNE,23,3.0,4.0,86,0.00,,,0.00,meteohub,2013-08-24 03:32:00,
2013-08-23 23:37:00,66.0,61.7,30.09,NNE,23,2.0,4.0,86,0.00,,,0.00,meteohub,2013-08-24 03:37:00,
2013-08-23 23:42:00,66.0,61.7,30.09,North,0,4.0,4.0,86,0.00,,,0.00,meteohub,2013-08-24 03:42:00,
2013-08-23 23:47:00,66.0,61.7,30.10,NE,45,2.0,4.0,86,0.00,,,0.00,meteohub,2013-08-24 03:47:00,
2013-08-23 23:52:00,65.8,61.5,30.10,NE,45,0.0,4.0,86,0.00,,,0.00,meteohub,2013-08-24 03:52:00,
2013-08-23 23:57:00,66.0,61.3,30.10,NE,45,2.0,4.0,85,0.00,,,0.00,meteohub,2013-08-24 03:57:00,